sensor_id;sensor_type;location;lat;lon;timestamp;temperature;humidity
11532;DHT22;5822;51.000;5.874;2024-03-07T00:00:43;9.70;99.90
11532;DHT22;5822;51.000;5.874;2024-03-07T00:03:09;9.70;99.90
11532;DHT22;5822;51.000;5.874;2024-03-07T00:05:34;9.60;99.90
11532;DHT22;5822;51.000;5.874;2024-03-07T00:08:00;9.60;99.90
11532;DHT22;5822;51.000;5.874;2024-03-07T00:10:26;9.60;99.90
11532;DHT22;5822;51.000;5.874;2024-03-07T00:12:54;9.60;99.90
11532;DHT22;5822;51.000;5.874;2024-03-07T00:15:20;9.60;99.90
11532;DHT22;5822;51.000;5.874;2024-03-07T00:17:46;9.40;99.90
11532;DHT22;5822;51.000;5.874;2024-03-07T00:20:12;9.50;99.90
11532;DHT22;5822;51.000;5.874;2024-03-07T00:22:43;9.50;99.90
11532;DHT22;5822;51.000;5.874;2024-03-07T00:25:09;9.50;99.90
11532;DHT22;5822;51.000;5.874;2024-03-07T00:27:36;9.50;99.90
11532;DHT22;5822;51.000;5.874;2024-03-07T00:30:06;9.40;99.90
11532;DHT22;5822;51.000;5.874;2024-03-07T00:32:34;9.40;99.90
11532;DHT22;5822;51.000;5.874;2024-03-07T00:35:08;9.40;99.90
11532;DHT22;5822;51.000;5.874;2024-03-07T00:37:36;9.40;99.90
11532;DHT22;5822;51.000;5.874;2024-03-07T00:40:02;9.40;99.90
11532;DHT22;5822;51.000;5.874;2024-03-07T00:42:28;9.70;99.90
11532;DHT22;5822;51.000;5.874;2024-03-07T00:44:54;9.40;99.90
11532;DHT22;5822;51.000;5.874;2024-03-07T00:47:20;9.30;99.90
11532;DHT22;5822;51.000;5.874;2024-03-07T00:49:46;9.30;99.90
11532;DHT22;5822;51.000;5.874;2024-03-07T00:52:12;9.30;99.90
11532;DHT22;5822;51.000;5.874;2024-03-07T00:54:38;9.20;99.90
11532;DHT22;5822;51.000;5.874;2024-03-07T00:57:04;9.20;99.90
11532;DHT22;5822;51.000;5.874;2024-03-07T00:59:30;9.20;99.90
11532;DHT22;5822;51.000;5.874;2024-03-07T01:01:56;9.20;99.90
11532;DHT22;5822;51.000;5.874;2024-03-07T01:04:21;9.20;99.90
11532;DHT22;5822;51.000;5.874;2024-03-07T01:06:48;9.20;99.90
11532;DHT22;5822;51.000;5.874;2024-03-07T01:09:14;9.10;99.90
11532;DHT22;5822;51.000;5.874;2024-03-07T01:11:43;9.00;99.90
11532;DHT22;5822;51.000;5.874;2024-03-07T01:14:10;9.00;99.90
11532;DHT22;5822;51.000;5.874;2024-03-07T01:16:36;9.00;99.90
11532;DHT22;5822;51.000;5.874;2024-03-07T01:19:02;9.00;99.90
11532;DHT22;5822;51.000;5.874;2024-03-07T01:21:32;8.90;99.90
11532;DHT22;5822;51.000;5.874;2024-03-07T01:23:58;8.90;99.90
11532;DHT22;5822;51.000;5.874;2024-03-07T01:26:27;8.90;99.90
11532;DHT22;5822;51.000;5.874;2024-03-07T01:28:52;8.90;99.90
11532;DHT22;5822;51.000;5.874;2024-03-07T01:31:20;8.90;99.90
11532;DHT22;5822;51.000;5.874;2024-03-07T01:33:46;8.90;99.90
11532;DHT22;5822;51.000;5.874;2024-03-07T01:36:12;8.80;99.90
11532;DHT22;5822;51.000;5.874;2024-03-07T01:38:37;8.80;99.90
11532;DHT22;5822;51.000;5.874;2024-03-07T01:41:03;8.70;99.90
11532;DHT22;5822;51.000;5.874;2024-03-07T01:43:29;8.80;99.90
11532;DHT22;5822;51.000;5.874;2024-03-07T01:45:57;8.80;99.90
11532;DHT22;5822;51.000;5.874;2024-03-07T01:48:27;8.80;99.90
11532;DHT22;5822;51.000;5.874;2024-03-07T01:50:55;8.70;99.90
11532;DHT22;5822;51.000;5.874;2024-03-07T01:53:22;8.80;99.90
11532;DHT22;5822;51.000;5.874;2024-03-07T01:55:50;8.80;99.90
11532;DHT22;5822;51.000;5.874;2024-03-07T01:58:18;8.70;99.90
11532;DHT22;5822;51.000;5.874;2024-03-07T02:00:45;8.70;99.90
11532;DHT22;5822;51.000;5.874;2024-03-07T02:03:11;8.70;99.90
11532;DHT22;5822;51.000;5.874;2024-03-07T02:05:36;8.70;99.90
11532;DHT22;5822;51.000;5.874;2024-03-07T02:08:02;8.60;99.90
11532;DHT22;5822;51.000;5.874;2024-03-07T02:10:28;8.60;99.90
11532;DHT22;5822;51.000;5.874;2024-03-07T02:12:54;8.60;99.90
11532;DHT22;5822;51.000;5.874;2024-03-07T02:15:20;8.60;99.90
11532;DHT22;5822;51.000;5.874;2024-03-07T02:17:46;8.70;99.90
11532;DHT22;5822;51.000;5.874;2024-03-07T02:20:12;8.70;99.90
11532;DHT22;5822;51.000;5.874;2024-03-07T02:22:39;8.70;99.90
11532;DHT22;5822;51.000;5.874;2024-03-07T02:25:06;8.60;99.90
11532;DHT22;5822;51.000;5.874;2024-03-07T02:27:32;8.60;99.90
11532;DHT22;5822;51.000;5.874;2024-03-07T02:29:57;8.60;99.90
11532;DHT22;5822;51.000;5.874;2024-03-07T02:32:23;8.50;99.90
11532;DHT22;5822;51.000;5.874;2024-03-07T02:34:49;8.50;99.90
11532;DHT22;5822;51.000;5.874;2024-03-07T02:37:15;8.50;99.90
11532;DHT22;5822;51.000;5.874;2024-03-07T02:39:40;8.60;99.90
11532;DHT22;5822;51.000;5.874;2024-03-07T02:42:06;8.60;99.90
11532;DHT22;5822;51.000;5.874;2024-03-07T02:44:32;8.60;99.90
11532;DHT22;5822;51.000;5.874;2024-03-07T02:46:58;8.60;99.90
11532;DHT22;5822;51.000;5.874;2024-03-07T02:49:24;8.50;99.90
11532;DHT22;5822;51.000;5.874;2024-03-07T02:51:50;8.50;99.90
11532;DHT22;5822;51.000;5.874;2024-03-07T02:54:15;8.50;99.90
11532;DHT22;5822;51.000;5.874;2024-03-07T02:56:41;8.50;99.90
11532;DHT22;5822;51.000;5.874;2024-03-07T02:59:07;8.50;99.90
11532;DHT22;5822;51.000;5.874;2024-03-07T03:01:32;8.40;99.90
11532;DHT22;5822;51.000;5.874;2024-03-07T03:03:58;8.40;99.90
11532;DHT22;5822;51.000;5.874;2024-03-07T03:06:24;8.40;99.90
11532;DHT22;5822;51.000;5.874;2024-03-07T03:08:50;8.40;99.90
11532;DHT22;5822;51.000;5.874;2024-03-07T03:11:15;8.40;99.90
11532;DHT22;5822;51.000;5.874;2024-03-07T03:13:41;8.40;99.90
11532;DHT22;5822;51.000;5.874;2024-03-07T03:16:07;8.40;99.90
11532;DHT22;5822;51.000;5.874;2024-03-07T03:18:34;8.40;99.90
11532;DHT22;5822;51.000;5.874;2024-03-07T03:21:03;8.40;99.90
11532;DHT22;5822;51.000;5.874;2024-03-07T03:23:29;8.40;99.90
11532;DHT22;5822;51.000;5.874;2024-03-07T03:25:55;8.40;99.90
11532;DHT22;5822;51.000;5.874;2024-03-07T03:28:22;8.30;99.90
11532;DHT22;5822;51.000;5.874;2024-03-07T03:30:49;8.30;99.90
11532;DHT22;5822;51.000;5.874;2024-03-07T03:33:15;8.20;99.90
11532;DHT22;5822;51.000;5.874;2024-03-07T03:35:41;8.30;99.90
11532;DHT22;5822;51.000;5.874;2024-03-07T03:38:07;8.30;99.90
11532;DHT22;5822;51.000;5.874;2024-03-07T03:40:34;8.30;99.90
11532;DHT22;5822;51.000;5.874;2024-03-07T03:43:00;8.30;99.90
11532;DHT22;5822;51.000;5.874;2024-03-07T03:45:29;8.30;99.90
11532;DHT22;5822;51.000;5.874;2024-03-07T03:47:55;8.30;99.90
11532;DHT22;5822;51.000;5.874;2024-03-07T03:50:20;8.30;99.90
11532;DHT22;5822;51.000;5.874;2024-03-07T03:52:48;8.20;99.90
11532;DHT22;5822;51.000;5.874;2024-03-07T03:55:14;8.20;99.90
11532;DHT22;5822;51.000;5.874;2024-03-07T03:57:41;8.20;99.90
11532;DHT22;5822;51.000;5.874;2024-03-07T04:00:08;8.20;99.90
11532;DHT22;5822;51.000;5.874;2024-03-07T04:02:44;8.20;99.90
11532;DHT22;5822;51.000;5.874;2024-03-07T04:05:15;8.20;99.90
11532;DHT22;5822;51.000;5.874;2024-03-07T04:07:41;9.00;99.90
11532;DHT22;5822;51.000;5.874;2024-03-07T04:10:08;8.20;99.90
11532;DHT22;5822;51.000;5.874;2024-03-07T04:12:35;8.30;99.90
11532;DHT22;5822;51.000;5.874;2024-03-07T04:15:10;8.20;99.90
11532;DHT22;5822;51.000;5.874;2024-03-07T04:17:36;8.20;99.90
11532;DHT22;5822;51.000;5.874;2024-03-07T04:20:02;8.20;99.90
11532;DHT22;5822;51.000;5.874;2024-03-07T04:22:34;8.30;99.90
11532;DHT22;5822;51.000;5.874;2024-03-07T04:25:03;8.20;99.90
11532;DHT22;5822;51.000;5.874;2024-03-07T04:27:29;8.20;99.90
11532;DHT22;5822;51.000;5.874;2024-03-07T04:29:56;8.20;99.90
11532;DHT22;5822;51.000;5.874;2024-03-07T04:32:21;8.20;99.90
11532;DHT22;5822;51.000;5.874;2024-03-07T04:34:47;8.20;99.90
11532;DHT22;5822;51.000;5.874;2024-03-07T04:37:14;8.20;99.90
11532;DHT22;5822;51.000;5.874;2024-03-07T04:39:40;8.20;99.90
11532;DHT22;5822;51.000;5.874;2024-03-07T04:42:07;8.20;99.90
11532;DHT22;5822;51.000;5.874;2024-03-07T04:44:35;8.20;99.90
11532;DHT22;5822;51.000;5.874;2024-03-07T04:47:01;8.20;99.90
11532;DHT22;5822;51.000;5.874;2024-03-07T04:49:28;8.10;99.90
11532;DHT22;5822;51.000;5.874;2024-03-07T04:51:55;8.10;99.90
11532;DHT22;5822;51.000;5.874;2024-03-07T04:54:22;8.10;99.90
11532;DHT22;5822;51.000;5.874;2024-03-07T04:56:49;8.10;99.90
11532;DHT22;5822;51.000;5.874;2024-03-07T04:59:16;8.20;99.90
11532;DHT22;5822;51.000;5.874;2024-03-07T05:01:42;8.20;99.90
11532;DHT22;5822;51.000;5.874;2024-03-07T05:04:08;8.20;99.90
11532;DHT22;5822;51.000;5.874;2024-03-07T05:06:35;8.10;99.90
11532;DHT22;5822;51.000;5.874;2024-03-07T05:09:04;8.10;99.90
11532;DHT22;5822;51.000;5.874;2024-03-07T05:11:30;8.10;99.90
11532;DHT22;5822;51.000;5.874;2024-03-07T05:14:00;8.10;99.90
11532;DHT22;5822;51.000;5.874;2024-03-07T05:16:30;8.10;99.90
11532;DHT22;5822;51.000;5.874;2024-03-07T05:18:59;8.20;99.90
11532;DHT22;5822;51.000;5.874;2024-03-07T05:21:28;8.10;99.90
11532;DHT22;5822;51.000;5.874;2024-03-07T05:24:03;8.10;99.90
11532;DHT22;5822;51.000;5.874;2024-03-07T05:26:30;8.10;99.90
11532;DHT22;5822;51.000;5.874;2024-03-07T05:29:08;8.10;99.90
11532;DHT22;5822;51.000;5.874;2024-03-07T05:31:38;8.10;99.90
11532;DHT22;5822;51.000;5.874;2024-03-07T05:34:09;8.10;99.90
11532;DHT22;5822;51.000;5.874;2024-03-07T05:36:35;8.10;99.90
11532;DHT22;5822;51.000;5.874;2024-03-07T05:39:02;8.00;99.90
11532;DHT22;5822;51.000;5.874;2024-03-07T05:41:39;8.00;99.90
11532;DHT22;5822;51.000;5.874;2024-03-07T05:44:05;8.00;99.90
11532;DHT22;5822;51.000;5.874;2024-03-07T05:46:41;8.00;99.90
11532;DHT22;5822;51.000;5.874;2024-03-07T05:49:10;8.00;99.90
11532;DHT22;5822;51.000;5.874;2024-03-07T05:51:36;7.90;99.90
11532;DHT22;5822;51.000;5.874;2024-03-07T05:54:02;7.90;99.90
11532;DHT22;5822;51.000;5.874;2024-03-07T05:56:32;7.90;99.90
11532;DHT22;5822;51.000;5.874;2024-03-07T05:59:04;7.90;99.90
11532;DHT22;5822;51.000;5.874;2024-03-07T06:01:31;7.90;99.90
11532;DHT22;5822;51.000;5.874;2024-03-07T06:03:58;7.90;99.90
11532;DHT22;5822;51.000;5.874;2024-03-07T06:06:25;7.90;99.90
11532;DHT22;5822;51.000;5.874;2024-03-07T06:08:51;7.90;99.90
11532;DHT22;5822;51.000;5.874;2024-03-07T06:11:16;7.80;99.90
11532;DHT22;5822;51.000;5.874;2024-03-07T06:13:47;7.80;99.90
11532;DHT22;5822;51.000;5.874;2024-03-07T06:16:12;7.90;99.90
11532;DHT22;5822;51.000;5.874;2024-03-07T06:18:40;7.80;99.90
11532;DHT22;5822;51.000;5.874;2024-03-07T06:21:06;7.80;99.90
11532;DHT22;5822;51.000;5.874;2024-03-07T06:23:31;7.80;99.90
11532;DHT22;5822;51.000;5.874;2024-03-07T06:25:58;7.80;99.90
11532;DHT22;5822;51.000;5.874;2024-03-07T06:28:25;7.80;99.90
11532;DHT22;5822;51.000;5.874;2024-03-07T06:30:50;7.80;99.90
11532;DHT22;5822;51.000;5.874;2024-03-07T06:33:16;7.70;99.90
11532;DHT22;5822;51.000;5.874;2024-03-07T06:35:42;7.70;99.90
11532;DHT22;5822;51.000;5.874;2024-03-07T06:38:09;7.70;99.90
11532;DHT22;5822;51.000;5.874;2024-03-07T06:40:39;7.60;99.90
11532;DHT22;5822;51.000;5.874;2024-03-07T06:43:08;7.60;99.90
11532;DHT22;5822;51.000;5.874;2024-03-07T06:45:38;7.60;99.90
11532;DHT22;5822;51.000;5.874;2024-03-07T06:48:05;7.60;99.90
11532;DHT22;5822;51.000;5.874;2024-03-07T06:50:36;7.60;99.90
11532;DHT22;5822;51.000;5.874;2024-03-07T06:53:05;7.60;99.90
11532;DHT22;5822;51.000;5.874;2024-03-07T06:55:34;7.60;99.90
11532;DHT22;5822;51.000;5.874;2024-03-07T06:58:01;7.60;99.90
11532;DHT22;5822;51.000;5.874;2024-03-07T07:00:30;7.60;99.90
11532;DHT22;5822;51.000;5.874;2024-03-07T07:02:57;7.60;99.90
11532;DHT22;5822;51.000;5.874;2024-03-07T07:05:23;7.60;99.90
11532;DHT22;5822;51.000;5.874;2024-03-07T07:07:49;7.60;99.90
11532;DHT22;5822;51.000;5.874;2024-03-07T07:10:14;7.60;99.90
11532;DHT22;5822;51.000;5.874;2024-03-07T07:12:47;7.70;99.90
11532;DHT22;5822;51.000;5.874;2024-03-07T07:15:17;7.70;99.90
11532;DHT22;5822;51.000;5.874;2024-03-07T07:17:44;7.80;99.90
11532;DHT22;5822;51.000;5.874;2024-03-07T07:20:12;7.80;99.90
11532;DHT22;5822;51.000;5.874;2024-03-07T07:22:42;7.80;99.90
11532;DHT22;5822;51.000;5.874;2024-03-07T07:25:09;7.90;99.90
11532;DHT22;5822;51.000;5.874;2024-03-07T07:27:49;8.00;99.90
11532;DHT22;5822;51.000;5.874;2024-03-07T07:30:17;8.00;99.90
11532;DHT22;5822;51.000;5.874;2024-03-07T07:32:44;8.10;99.90
11532;DHT22;5822;51.000;5.874;2024-03-07T07:35:10;8.20;99.90
11532;DHT22;5822;51.000;5.874;2024-03-07T07:37:47;8.20;99.90
11532;DHT22;5822;51.000;5.874;2024-03-07T07:40:16;8.30;99.90
11532;DHT22;5822;51.000;5.874;2024-03-07T07:42:47;8.30;99.90
11532;DHT22;5822;51.000;5.874;2024-03-07T07:45:15;8.40;99.90
11532;DHT22;5822;51.000;5.874;2024-03-07T07:47:59;8.40;99.90
11532;DHT22;5822;51.000;5.874;2024-03-07T07:50:25;8.40;99.90
11532;DHT22;5822;51.000;5.874;2024-03-07T07:52:53;8.50;99.90
11532;DHT22;5822;51.000;5.874;2024-03-07T07:55:20;8.50;99.90
11532;DHT22;5822;51.000;5.874;2024-03-07T07:57:54;8.50;99.90
11532;DHT22;5822;51.000;5.874;2024-03-07T08:00:22;8.50;99.90
11532;DHT22;5822;51.000;5.874;2024-03-07T08:02:49;8.50;99.90
11532;DHT22;5822;51.000;5.874;2024-03-07T08:05:15;8.60;99.90
11532;DHT22;5822;51.000;5.874;2024-03-07T08:07:44;8.60;99.90
11532;DHT22;5822;51.000;5.874;2024-03-07T08:10:10;8.70;99.90
11532;DHT22;5822;51.000;5.874;2024-03-07T08:12:36;8.70;99.90
11532;DHT22;5822;51.000;5.874;2024-03-07T08:15:03;8.70;99.90
11532;DHT22;5822;51.000;5.874;2024-03-07T08:17:30;8.70;99.90
11532;DHT22;5822;51.000;5.874;2024-03-07T08:19:57;8.70;99.90
11532;DHT22;5822;51.000;5.874;2024-03-07T08:22:23;8.80;99.90
11532;DHT22;5822;51.000;5.874;2024-03-07T08:24:50;8.80;99.90
11532;DHT22;5822;51.000;5.874;2024-03-07T08:27:15;8.80;99.90
11532;DHT22;5822;51.000;5.874;2024-03-07T08:29:41;8.80;99.90
11532;DHT22;5822;51.000;5.874;2024-03-07T08:32:07;8.80;99.90
11532;DHT22;5822;51.000;5.874;2024-03-07T08:34:33;8.90;99.90
11532;DHT22;5822;51.000;5.874;2024-03-07T08:36:58;8.80;99.90
11532;DHT22;5822;51.000;5.874;2024-03-07T08:39:24;8.80;99.90
11532;DHT22;5822;51.000;5.874;2024-03-07T08:41:50;8.90;99.90
11532;DHT22;5822;51.000;5.874;2024-03-07T08:44:16;8.90;99.90
11532;DHT22;5822;51.000;5.874;2024-03-07T08:46:42;9.00;99.90
11532;DHT22;5822;51.000;5.874;2024-03-07T08:49:09;9.00;99.90
11532;DHT22;5822;51.000;5.874;2024-03-07T08:51:36;9.10;99.90
11532;DHT22;5822;51.000;5.874;2024-03-07T08:54:02;9.00;99.90
11532;DHT22;5822;51.000;5.874;2024-03-07T08:56:27;9.10;99.90
11532;DHT22;5822;51.000;5.874;2024-03-07T08:58:53;9.00;99.90
11532;DHT22;5822;51.000;5.874;2024-03-07T09:01:19;9.10;99.90
11532;DHT22;5822;51.000;5.874;2024-03-07T09:03:45;9.10;99.90
11532;DHT22;5822;51.000;5.874;2024-03-07T09:06:11;9.20;99.90
11532;DHT22;5822;51.000;5.874;2024-03-07T09:08:39;9.20;99.90
11532;DHT22;5822;51.000;5.874;2024-03-07T09:11:04;9.20;99.90
11532;DHT22;5822;51.000;5.874;2024-03-07T09:13:30;9.30;99.90
11532;DHT22;5822;51.000;5.874;2024-03-07T09:15:55;9.30;99.90
11532;DHT22;5822;51.000;5.874;2024-03-07T09:18:21;9.30;99.90
11532;DHT22;5822;51.000;5.874;2024-03-07T09:20:49;9.30;99.90
11532;DHT22;5822;51.000;5.874;2024-03-07T09:23:15;9.40;99.90
11532;DHT22;5822;51.000;5.874;2024-03-07T09:25:41;9.40;99.90
11532;DHT22;5822;51.000;5.874;2024-03-07T09:28:08;9.50;99.90
11532;DHT22;5822;51.000;5.874;2024-03-07T09:30:34;9.50;99.90
11532;DHT22;5822;51.000;5.874;2024-03-07T09:33:03;9.60;99.90
11532;DHT22;5822;51.000;5.874;2024-03-07T09:35:29;9.60;99.90
11532;DHT22;5822;51.000;5.874;2024-03-07T09:37:55;9.60;99.90
11532;DHT22;5822;51.000;5.874;2024-03-07T09:40:22;9.70;99.90
11532;DHT22;5822;51.000;5.874;2024-03-07T09:42:50;9.70;99.90
11532;DHT22;5822;51.000;5.874;2024-03-07T09:45:23;9.80;99.90
11532;DHT22;5822;51.000;5.874;2024-03-07T09:47:52;9.80;99.90
11532;DHT22;5822;51.000;5.874;2024-03-07T09:50:20;9.90;99.90
11532;DHT22;5822;51.000;5.874;2024-03-07T09:52:49;9.90;99.90
11532;DHT22;5822;51.000;5.874;2024-03-07T09:55:19;10.00;99.90
11532;DHT22;5822;51.000;5.874;2024-03-07T09:57:49;10.10;99.90
11532;DHT22;5822;51.000;5.874;2024-03-07T10:00:20;10.10;99.90
11532;DHT22;5822;51.000;5.874;2024-03-07T10:03:09;10.20;99.90
11532;DHT22;5822;51.000;5.874;2024-03-07T10:05:35;10.30;99.90
11532;DHT22;5822;51.000;5.874;2024-03-07T10:08:03;10.30;99.90
11532;DHT22;5822;51.000;5.874;2024-03-07T10:10:29;10.30;99.90
11532;DHT22;5822;51.000;5.874;2024-03-07T10:12:55;10.30;99.90
11532;DHT22;5822;51.000;5.874;2024-03-07T10:15:30;10.40;99.90
11532;DHT22;5822;51.000;5.874;2024-03-07T10:17:56;10.40;99.90
11532;DHT22;5822;51.000;5.874;2024-03-07T10:20:22;10.40;99.90
11532;DHT22;5822;51.000;5.874;2024-03-07T10:22:50;10.50;99.90
11532;DHT22;5822;51.000;5.874;2024-03-07T10:25:22;10.60;99.90
11532;DHT22;5822;51.000;5.874;2024-03-07T10:27:51;10.70;99.90
11532;DHT22;5822;51.000;5.874;2024-03-07T10:30:17;10.70;99.90
11532;DHT22;5822;51.000;5.874;2024-03-07T10:33:06;10.70;99.90
11532;DHT22;5822;51.000;5.874;2024-03-07T10:35:33;10.70;99.90
11532;DHT22;5822;51.000;5.874;2024-03-07T10:37:59;10.80;99.90
11532;DHT22;5822;51.000;5.874;2024-03-07T10:40:32;10.80;99.90
11532;DHT22;5822;51.000;5.874;2024-03-07T10:42:59;10.90;99.90
11532;DHT22;5822;51.000;5.874;2024-03-07T10:45:33;11.00;99.90
11532;DHT22;5822;51.000;5.874;2024-03-07T10:48:03;11.10;99.90
11532;DHT22;5822;51.000;5.874;2024-03-07T10:50:48;11.10;99.90
11532;DHT22;5822;51.000;5.874;2024-03-07T10:56:29;11.20;99.90
11532;DHT22;5822;51.000;5.874;2024-03-07T10:59:18;11.30;99.90
11532;DHT22;5822;51.000;5.874;2024-03-07T11:02:11;11.30;99.90
11532;DHT22;5822;51.000;5.874;2024-03-07T11:04:40;11.30;99.90
11532;DHT22;5822;51.000;5.874;2024-03-07T11:07:05;11.20;99.90
11532;DHT22;5822;51.000;5.874;2024-03-07T11:09:31;11.20;99.90
11532;DHT22;5822;51.000;5.874;2024-03-07T11:12:00;11.20;99.90
11532;DHT22;5822;51.000;5.874;2024-03-07T11:14:29;11.20;99.90
11532;DHT22;5822;51.000;5.874;2024-03-07T11:16:57;11.30;99.90
11532;DHT22;5822;51.000;5.874;2024-03-07T11:19:31;11.40;99.90
11532;DHT22;5822;51.000;5.874;2024-03-07T11:22:02;11.50;99.90
11532;DHT22;5822;51.000;5.874;2024-03-07T11:24:29;11.60;99.90
11532;DHT22;5822;51.000;5.874;2024-03-07T11:26:58;11.70;99.90
11532;DHT22;5822;51.000;5.874;2024-03-07T11:29:44;11.80;99.90
11532;DHT22;5822;51.000;5.874;2024-03-07T11:32:13;11.90;99.90
11532;DHT22;5822;51.000;5.874;2024-03-07T11:34:43;11.80;99.90
11532;DHT22;5822;51.000;5.874;2024-03-07T11:37:20;11.80;99.90
11532;DHT22;5822;51.000;5.874;2024-03-07T11:40:02;11.90;99.90
11532;DHT22;5822;51.000;5.874;2024-03-07T11:42:34;11.90;99.90
11532;DHT22;5822;51.000;5.874;2024-03-07T11:45:02;11.90;99.90
11532;DHT22;5822;51.000;5.874;2024-03-07T11:47:37;11.80;99.90
11532;DHT22;5822;51.000;5.874;2024-03-07T11:50:04;11.90;99.90
11532;DHT22;5822;51.000;5.874;2024-03-07T11:52:35;12.00;99.90
11532;DHT22;5822;51.000;5.874;2024-03-07T11:55:02;12.00;99.90
11532;DHT22;5822;51.000;5.874;2024-03-07T11:57:31;12.00;99.90
11532;DHT22;5822;51.000;5.874;2024-03-07T12:00:00;12.00;99.90
11532;DHT22;5822;51.000;5.874;2024-03-07T12:02:27;12.00;99.90
11532;DHT22;5822;51.000;5.874;2024-03-07T12:04:54;12.00;99.90
11532;DHT22;5822;51.000;5.874;2024-03-07T12:07:20;12.00;99.90
11532;DHT22;5822;51.000;5.874;2024-03-07T12:09:49;12.00;99.90
11532;DHT22;5822;51.000;5.874;2024-03-07T12:12:22;12.00;99.90
11532;DHT22;5822;51.000;5.874;2024-03-07T12:14:48;12.00;99.90
11532;DHT22;5822;51.000;5.874;2024-03-07T12:17:18;12.00;99.90
11532;DHT22;5822;51.000;5.874;2024-03-07T12:19:44;12.00;99.90
11532;DHT22;5822;51.000;5.874;2024-03-07T12:22:12;12.00;99.90
11532;DHT22;5822;51.000;5.874;2024-03-07T12:24:41;12.10;99.90
11532;DHT22;5822;51.000;5.874;2024-03-07T12:27:15;12.10;99.90
11532;DHT22;5822;51.000;5.874;2024-03-07T12:29:42;12.10;99.90
11532;DHT22;5822;51.000;5.874;2024-03-07T12:32:12;12.10;99.90
11532;DHT22;5822;51.000;5.874;2024-03-07T12:34:43;12.10;99.90
11532;DHT22;5822;51.000;5.874;2024-03-07T12:37:12;12.10;99.90
11532;DHT22;5822;51.000;5.874;2024-03-07T12:39:42;12.10;99.90
11532;DHT22;5822;51.000;5.874;2024-03-07T12:42:24;12.00;99.90
11532;DHT22;5822;51.000;5.874;2024-03-07T12:44:50;12.10;99.90
11532;DHT22;5822;51.000;5.874;2024-03-07T12:47:16;12.00;99.90
11532;DHT22;5822;51.000;5.874;2024-03-07T12:49:43;12.10;99.90
11532;DHT22;5822;51.000;5.874;2024-03-07T12:52:09;12.00;99.90
11532;DHT22;5822;51.000;5.874;2024-03-07T12:54:36;12.10;99.90
11532;DHT22;5822;51.000;5.874;2024-03-07T12:57:11;12.10;99.90
11532;DHT22;5822;51.000;5.874;2024-03-07T12:59:40;12.10;99.90
11532;DHT22;5822;51.000;5.874;2024-03-07T13:02:07;12.10;99.90
11532;DHT22;5822;51.000;5.874;2024-03-07T13:04:33;12.10;99.90
11532;DHT22;5822;51.000;5.874;2024-03-07T13:06:59;12.20;99.90
11532;DHT22;5822;51.000;5.874;2024-03-07T13:09:27;12.30;99.90
11532;DHT22;5822;51.000;5.874;2024-03-07T13:11:54;12.30;99.90
11532;DHT22;5822;51.000;5.874;2024-03-07T13:14:19;12.40;99.90
11532;DHT22;5822;51.000;5.874;2024-03-07T13:16:45;12.40;99.90
11532;DHT22;5822;51.000;5.874;2024-03-07T13:19:11;12.40;99.90
11532;DHT22;5822;51.000;5.874;2024-03-07T13:21:38;12.40;99.90
11532;DHT22;5822;51.000;5.874;2024-03-07T13:24:05;12.40;99.90
11532;DHT22;5822;51.000;5.874;2024-03-07T13:26:31;12.50;99.90
11532;DHT22;5822;51.000;5.874;2024-03-07T13:28:57;12.50;99.90
11532;DHT22;5822;51.000;5.874;2024-03-07T13:31:28;12.50;99.90
11532;DHT22;5822;51.000;5.874;2024-03-07T13:33:58;12.50;99.90
11532;DHT22;5822;51.000;5.874;2024-03-07T13:36:27;12.50;99.90
11532;DHT22;5822;51.000;5.874;2024-03-07T13:38:53;12.60;99.90
11532;DHT22;5822;51.000;5.874;2024-03-07T13:41:20;12.60;99.90
11532;DHT22;5822;51.000;5.874;2024-03-07T13:43:46;12.50;99.90
11532;DHT22;5822;51.000;5.874;2024-03-07T13:46:13;12.60;99.90
11532;DHT22;5822;51.000;5.874;2024-03-07T13:48:40;12.60;99.90
11532;DHT22;5822;51.000;5.874;2024-03-07T13:51:08;12.60;99.90
11532;DHT22;5822;51.000;5.874;2024-03-07T13:53:34;12.60;99.90
11532;DHT22;5822;51.000;5.874;2024-03-07T14:01:52;12.80;99.90
11532;DHT22;5822;51.000;5.874;2024-03-07T14:32:31;12.90;99.90
11532;DHT22;5822;51.000;5.874;2024-03-07T14:35:17;12.80;99.90
11532;DHT22;5822;51.000;5.874;2024-03-07T14:37:52;12.90;99.90
11532;DHT22;5822;51.000;5.874;2024-03-07T14:40:21;12.90;99.90
11532;DHT22;5822;51.000;5.874;2024-03-07T14:42:48;12.90;99.90
11532;DHT22;5822;51.000;5.874;2024-03-07T14:45:25;12.90;99.90
11532;DHT22;5822;51.000;5.874;2024-03-07T14:47:51;12.90;99.90
11532;DHT22;5822;51.000;5.874;2024-03-07T14:50:21;12.90;99.90
11532;DHT22;5822;51.000;5.874;2024-03-07T14:52:48;12.90;99.90
11532;DHT22;5822;51.000;5.874;2024-03-07T14:55:14;12.90;99.90
11532;DHT22;5822;51.000;5.874;2024-03-07T14:57:40;12.80;99.90
11532;DHT22;5822;51.000;5.874;2024-03-07T15:00:08;12.80;99.90
11532;DHT22;5822;51.000;5.874;2024-03-07T15:02:49;12.80;99.90
11532;DHT22;5822;51.000;5.874;2024-03-07T15:05:16;12.80;99.90
11532;DHT22;5822;51.000;5.874;2024-03-07T15:07:43;12.80;99.90
11532;DHT22;5822;51.000;5.874;2024-03-07T15:12:47;13.00;99.90
11532;DHT22;5822;51.000;5.874;2024-03-07T15:15:16;13.00;99.90
11532;DHT22;5822;51.000;5.874;2024-03-07T15:17:44;13.10;99.90
11532;DHT22;5822;51.000;5.874;2024-03-07T15:20:14;13.10;99.90
11532;DHT22;5822;51.000;5.874;2024-03-07T15:23:15;13.00;99.90
11532;DHT22;5822;51.000;5.874;2024-03-07T15:25:40;13.10;99.90
11532;DHT22;5822;51.000;5.874;2024-03-07T15:28:06;13.10;99.90
11532;DHT22;5822;51.000;5.874;2024-03-07T15:30:32;13.10;99.90
11532;DHT22;5822;51.000;5.874;2024-03-07T15:33:02;13.00;99.90
11532;DHT22;5822;51.000;5.874;2024-03-07T15:35:29;13.00;99.90
11532;DHT22;5822;51.000;5.874;2024-03-07T15:37:56;13.00;99.90
11532;DHT22;5822;51.000;5.874;2024-03-07T15:40:22;13.00;99.90
11532;DHT22;5822;51.000;5.874;2024-03-07T15:42:49;12.90;99.90
11532;DHT22;5822;51.000;5.874;2024-03-07T15:45:23;12.90;99.90
11532;DHT22;5822;51.000;5.874;2024-03-07T15:47:51;12.90;99.90
11532;DHT22;5822;51.000;5.874;2024-03-07T15:50:17;13.00;99.90
11532;DHT22;5822;51.000;5.874;2024-03-07T15:52:50;12.90;99.90
11532;DHT22;5822;51.000;5.874;2024-03-07T15:55:19;12.90;99.90
11532;DHT22;5822;51.000;5.874;2024-03-07T15:57:56;12.90;99.90
11532;DHT22;5822;51.000;5.874;2024-03-07T16:00:26;12.90;99.90
11532;DHT22;5822;51.000;5.874;2024-03-07T16:02:56;12.80;99.90
11532;DHT22;5822;51.000;5.874;2024-03-07T16:05:23;12.80;99.90
11532;DHT22;5822;51.000;5.874;2024-03-07T16:07:53;12.90;99.90
11532;DHT22;5822;51.000;5.874;2024-03-07T16:10:22;12.90;99.90
11532;DHT22;5822;51.000;5.874;2024-03-07T16:12:49;12.90;99.90
11532;DHT22;5822;51.000;5.874;2024-03-07T16:15:15;12.90;99.90
11532;DHT22;5822;51.000;5.874;2024-03-07T16:17:41;12.90;99.90
11532;DHT22;5822;51.000;5.874;2024-03-07T16:20:07;12.80;99.90
11532;DHT22;5822;51.000;5.874;2024-03-07T16:22:41;12.80;99.90
11532;DHT22;5822;51.000;5.874;2024-03-07T16:25:11;12.80;99.90
11532;DHT22;5822;51.000;5.874;2024-03-07T16:27:40;12.90;99.90
11532;DHT22;5822;51.000;5.874;2024-03-07T16:30:20;12.90;99.90
11532;DHT22;5822;51.000;5.874;2024-03-07T16:32:46;12.90;99.90
11532;DHT22;5822;51.000;5.874;2024-03-07T16:35:14;12.90;99.90
11532;DHT22;5822;51.000;5.874;2024-03-07T16:37:45;12.80;99.90
11532;DHT22;5822;51.000;5.874;2024-03-07T16:40:13;12.80;99.90